sensor_id;sensor_type;location;lat;lon;timestamp;P1;durP1;ratioP1;P2;durP2;ratioP2
8230;SDS011;4156;50.908;6.974;2022-11-11T00:02:01;7.90;;;3.97;;
8230;SDS011;4156;50.908;6.974;2022-11-11T00:04:26;7.40;;;4.00;;
8230;SDS011;4156;50.908;6.974;2022-11-11T00:06:52;8.90;;;4.43;;
8230;SDS011;4156;50.908;6.974;2022-11-11T00:09:17;7.23;;;4.80;;
8230;SDS011;4156;50.908;6.974;2022-11-11T00:11:43;6.40;;;4.50;;
8230;SDS011;4156;50.908;6.974;2022-11-11T00:14:09;6.40;;;3.83;;
8230;SDS011;4156;50.908;6.974;2022-11-11T00:16:34;8.30;;;3.90;;
8230;SDS011;4156;50.908;6.974;2022-11-11T00:19:19;6.70;;;4.37;;
8230;SDS011;4156;50.908;6.974;2022-11-11T00:22:02;9.00;;;4.20;;
8230;SDS011;4156;50.908;6.974;2022-11-11T00:24:47;9.37;;;4.10;;
8230;SDS011;4156;50.908;6.974;2022-11-11T00:27:30;5.67;;;4.23;;
8230;SDS011;4156;50.908;6.974;2022-11-11T00:29:56;7.13;;;4.30;;
8230;SDS011;4156;50.908;6.974;2022-11-11T00:32:21;7.73;;;4.30;;
8230;SDS011;4156;50.908;6.974;2022-11-11T00:34:47;5.53;;;3.67;;
8230;SDS011;4156;50.908;6.974;2022-11-11T00:37:35;9.53;;;3.63;;
8230;SDS011;4156;50.908;6.974;2022-11-11T00:40:01;6.30;;;3.93;;
8230;SDS011;4156;50.908;6.974;2022-11-11T00:42:27;7.13;;;4.13;;
8230;SDS011;4156;50.908;6.974;2022-11-11T00:44:52;5.23;;;3.73;;
8230;SDS011;4156;50.908;6.974;2022-11-11T00:47:18;7.63;;;4.70;;
8230;SDS011;4156;50.908;6.974;2022-11-11T00:50:05;7.83;;;4.27;;
8230;SDS011;4156;50.908;6.974;2022-11-11T00:52:54;5.80;;;3.53;;
8230;SDS011;4156;50.908;6.974;2022-11-11T00:55:20;9.97;;;3.93;;
8230;SDS011;4156;50.908;6.974;2022-11-11T00:57:45;6.07;;;3.60;;
8230;SDS011;4156;50.908;6.974;2022-11-11T01:00:11;7.53;;;4.37;;
8230;SDS011;4156;50.908;6.974;2022-11-11T01:02:37;6.53;;;4.00;;
8230;SDS011;4156;50.908;6.974;2022-11-11T01:05:03;7.20;;;4.00;;
8230;SDS011;4156;50.908;6.974;2022-11-11T01:07:29;8.37;;;4.40;;
8230;SDS011;4156;50.908;6.974;2022-11-11T01:09:54;7.27;;;3.90;;
8230;SDS011;4156;50.908;6.974;2022-11-11T01:12:20;7.67;;;4.47;;
8230;SDS011;4156;50.908;6.974;2022-11-11T01:14:45;6.17;;;3.83;;
8230;SDS011;4156;50.908;6.974;2022-11-11T01:17:11;11.90;;;4.60;;
8230;SDS011;4156;50.908;6.974;2022-11-11T01:19:36;7.33;;;4.03;;
8230;SDS011;4156;50.908;6.974;2022-11-11T01:22:02;6.20;;;4.30;;
8230;SDS011;4156;50.908;6.974;2022-11-11T01:24:27;7.57;;;4.73;;
8230;SDS011;4156;50.908;6.974;2022-11-11T01:26:53;7.53;;;4.17;;
8230;SDS011;4156;50.908;6.974;2022-11-11T01:29:18;8.47;;;4.20;;
8230;SDS011;4156;50.908;6.974;2022-11-11T01:31:44;6.03;;;4.03;;
8230;SDS011;4156;50.908;6.974;2022-11-11T01:34:10;5.80;;;3.80;;
8230;SDS011;4156;50.908;6.974;2022-11-11T01:36:35;6.50;;;4.03;;
8230;SDS011;4156;50.908;6.974;2022-11-11T01:39:01;5.80;;;3.93;;
8230;SDS011;4156;50.908;6.974;2022-11-11T01:41:28;7.00;;;4.23;;
8230;SDS011;4156;50.908;6.974;2022-11-11T01:43:59;9.90;;;4.97;;
8230;SDS011;4156;50.908;6.974;2022-11-11T01:49:31;8.73;;;4.10;;
8230;SDS011;4156;50.908;6.974;2022-11-11T01:57:27;5.47;;;3.97;;
8230;SDS011;4156;50.908;6.974;2022-11-11T01:59:58;6.03;;;3.63;;
8230;SDS011;4156;50.908;6.974;2022-11-11T02:02:42;6.97;;;4.10;;
8230;SDS011;4156;50.908;6.974;2022-11-11T02:05:15;6.57;;;3.83;;
8230;SDS011;4156;50.908;6.974;2022-11-11T02:08:06;9.20;;;4.07;;
8230;SDS011;4156;50.908;6.974;2022-11-11T02:11:06;7.30;;;4.27;;
8230;SDS011;4156;50.908;6.974;2022-11-11T02:13:36;7.97;;;4.23;;
8230;SDS011;4156;50.908;6.974;2022-11-11T02:16:22;9.60;;;4.10;;
8230;SDS011;4156;50.908;6.974;2022-11-11T02:18:48;6.70;;;3.50;;
8230;SDS011;4156;50.908;6.974;2022-11-11T02:21:16;7.27;;;4.10;;
8230;SDS011;4156;50.908;6.974;2022-11-11T02:24:06;7.07;;;4.07;;
8230;SDS011;4156;50.908;6.974;2022-11-11T02:26:34;5.47;;;3.93;;
8230;SDS011;4156;50.908;6.974;2022-11-11T02:29:00;6.97;;;3.90;;
8230;SDS011;4156;50.908;6.974;2022-11-11T02:31:29;9.57;;;4.30;;
8230;SDS011;4156;50.908;6.974;2022-11-11T02:33:56;5.10;;;3.67;;
8230;SDS011;4156;50.908;6.974;2022-11-11T02:36:22;6.83;;;3.87;;
8230;SDS011;4156;50.908;6.974;2022-11-11T02:38:48;6.50;;;4.43;;
8230;SDS011;4156;50.908;6.974;2022-11-11T02:41:14;7.63;;;4.33;;
8230;SDS011;4156;50.908;6.974;2022-11-11T02:43:58;7.83;;;4.00;;
8230;SDS011;4156;50.908;6.974;2022-11-11T02:46:24;7.00;;;4.37;;
8230;SDS011;4156;50.908;6.974;2022-11-11T02:48:49;9.53;;;4.10;;
8230;SDS011;4156;50.908;6.974;2022-11-11T02:51:15;6.90;;;3.97;;
8230;SDS011;4156;50.908;6.974;2022-11-11T02:53:40;5.93;;;4.17;;
8230;SDS011;4156;50.908;6.974;2022-11-11T02:56:06;5.30;;;4.03;;
8230;SDS011;4156;50.908;6.974;2022-11-11T02:58:31;6.30;;;4.23;;
8230;SDS011;4156;50.908;6.974;2022-11-11T03:00:57;5.00;;;3.77;;
8230;SDS011;4156;50.908;6.974;2022-11-11T03:03:23;7.67;;;3.80;;
8230;SDS011;4156;50.908;6.974;2022-11-11T03:05:48;8.83;;;4.00;;
8230;SDS011;4156;50.908;6.974;2022-11-11T03:08:14;7.37;;;4.33;;
8230;SDS011;4156;50.908;6.974;2022-11-11T03:10:39;9.43;;;4.13;;
8230;SDS011;4156;50.908;6.974;2022-11-11T03:13:05;8.23;;;4.00;;
8230;SDS011;4156;50.908;6.974;2022-11-11T03:15:30;5.67;;;3.97;;
8230;SDS011;4156;50.908;6.974;2022-11-11T03:17:56;8.07;;;4.53;;
8230;SDS011;4156;50.908;6.974;2022-11-11T03:20:21;9.43;;;4.27;;
8230;SDS011;4156;50.908;6.974;2022-11-11T03:23:06;7.27;;;4.60;;
8230;SDS011;4156;50.908;6.974;2022-11-11T03:25:36;7.40;;;4.30;;
8230;SDS011;4156;50.908;6.974;2022-11-11T03:28:08;8.00;;;4.83;;
8230;SDS011;4156;50.908;6.974;2022-11-11T03:30:36;5.93;;;4.17;;
8230;SDS011;4156;50.908;6.974;2022-11-11T03:33:03;8.67;;;5.27;;
8230;SDS011;4156;50.908;6.974;2022-11-11T03:35:29;7.77;;;3.93;;
8230;SDS011;4156;50.908;6.974;2022-11-11T03:37:54;5.83;;;3.70;;
8230;SDS011;4156;50.908;6.974;2022-11-11T03:40:39;9.00;;;4.50;;
8230;SDS011;4156;50.908;6.974;2022-11-11T03:43:04;8.13;;;4.83;;
8230;SDS011;4156;50.908;6.974;2022-11-11T03:45:30;6.67;;;4.50;;
8230;SDS011;4156;50.908;6.974;2022-11-11T03:47:56;8.57;;;4.07;;
8230;SDS011;4156;50.908;6.974;2022-11-11T03:50:22;9.07;;;4.20;;
8230;SDS011;4156;50.908;6.974;2022-11-11T03:52:48;8.63;;;4.67;;
8230;SDS011;4156;50.908;6.974;2022-11-11T03:55:13;10.17;;;4.33;;
8230;SDS011;4156;50.908;6.974;2022-11-11T03:57:39;5.43;;;4.10;;
8230;SDS011;4156;50.908;6.974;2022-11-11T04:00:06;8.00;;;4.37;;
8230;SDS011;4156;50.908;6.974;2022-11-11T04:02:32;8.27;;;4.30;;
8230;SDS011;4156;50.908;6.974;2022-11-11T04:05:17;8.00;;;4.53;;
8230;SDS011;4156;50.908;6.974;2022-11-11T04:08:01;8.60;;;4.20;;
8230;SDS011;4156;50.908;6.974;2022-11-11T04:10:45;6.70;;;4.70;;
8230;SDS011;4156;50.908;6.974;2022-11-11T04:13:10;8.27;;;4.53;;
8230;SDS011;4156;50.908;6.974;2022-11-11T04:15:55;7.83;;;4.13;;
8230;SDS011;4156;50.908;6.974;2022-11-11T04:18:30;6.87;;;4.10;;
8230;SDS011;4156;50.908;6.974;2022-11-11T04:21:14;5.93;;;4.20;;
8230;SDS011;4156;50.908;6.974;2022-11-11T04:23:58;7.90;;;4.47;;
8230;SDS011;4156;50.908;6.974;2022-11-11T04:26:23;7.70;;;5.10;;
8230;SDS011;4156;50.908;6.974;2022-11-11T04:28:49;6.67;;;4.53;;
8230;SDS011;4156;50.908;6.974;2022-11-11T04:31:33;8.33;;;4.53;;
8230;SDS011;4156;50.908;6.974;2022-11-11T04:33:58;8.60;;;4.47;;
8230;SDS011;4156;50.908;6.974;2022-11-11T04:36:24;9.67;;;5.23;;
8230;SDS011;4156;50.908;6.974;2022-11-11T04:38:50;9.17;;;4.40;;
8230;SDS011;4156;50.908;6.974;2022-11-11T04:41:34;6.07;;;4.23;;
8230;SDS011;4156;50.908;6.974;2022-11-11T04:43:59;6.33;;;4.10;;
8230;SDS011;4156;50.908;6.974;2022-11-11T04:46:43;8.40;;;4.23;;
8230;SDS011;4156;50.908;6.974;2022-11-11T04:49:09;9.17;;;5.10;;
8230;SDS011;4156;50.908;6.974;2022-11-11T04:51:34;7.60;;;4.70;;
8230;SDS011;4156;50.908;6.974;2022-11-11T04:54:18;7.93;;;5.10;;
8230;SDS011;4156;50.908;6.974;2022-11-11T04:56:44;6.97;;;4.97;;
8230;SDS011;4156;50.908;6.974;2022-11-11T04:59:13;9.43;;;5.10;;
8230;SDS011;4156;50.908;6.974;2022-11-11T05:01:40;8.80;;;4.93;;
8230;SDS011;4156;50.908;6.974;2022-11-11T05:04:24;8.27;;;4.50;;
8230;SDS011;4156;50.908;6.974;2022-11-11T05:06:49;6.17;;;4.00;;
8230;SDS011;4156;50.908;6.974;2022-11-11T05:09:34;7.37;;;5.00;;
8230;SDS011;4156;50.908;6.974;2022-11-11T05:11:59;8.40;;;4.90;;
8230;SDS011;4156;50.908;6.974;2022-11-11T05:14:25;6.30;;;4.50;;
8230;SDS011;4156;50.908;6.974;2022-11-11T05:17:10;7.77;;;4.37;;
8230;SDS011;4156;50.908;6.974;2022-11-11T05:19:54;7.13;;;4.53;;
8230;SDS011;4156;50.908;6.974;2022-11-11T05:22:38;8.77;;;5.00;;
8230;SDS011;4156;50.908;6.974;2022-11-11T05:25:05;8.20;;;5.20;;
8230;SDS011;4156;50.908;6.974;2022-11-11T05:27:50;8.03;;;4.83;;
8230;SDS011;4156;50.908;6.974;2022-11-11T05:30:17;8.77;;;4.63;;
8230;SDS011;4156;50.908;6.974;2022-11-11T05:32:43;7.07;;;4.97;;
8230;SDS011;4156;50.908;6.974;2022-11-11T05:35:10;7.87;;;4.77;;
8230;SDS011;4156;50.908;6.974;2022-11-11T05:37:39;7.13;;;4.87;;
8230;SDS011;4156;50.908;6.974;2022-11-11T05:40:05;6.00;;;4.03;;
8230;SDS011;4156;50.908;6.974;2022-11-11T05:42:31;7.93;;;4.17;;
8230;SDS011;4156;50.908;6.974;2022-11-11T05:44:57;8.13;;;4.40;;
8230;SDS011;4156;50.908;6.974;2022-11-11T05:47:23;7.77;;;4.80;;
8230;SDS011;4156;50.908;6.974;2022-11-11T05:49:48;9.77;;;5.77;;
8230;SDS011;4156;50.908;6.974;2022-11-11T05:52:14;6.70;;;4.27;;
8230;SDS011;4156;50.908;6.974;2022-11-11T05:54:40;5.77;;;4.83;;
8230;SDS011;4156;50.908;6.974;2022-11-11T05:57:06;7.60;;;4.53;;
8230;SDS011;4156;50.908;6.974;2022-11-11T05:59:32;7.60;;;4.57;;
8230;SDS011;4156;50.908;6.974;2022-11-11T06:01:57;6.53;;;4.90;;
8230;SDS011;4156;50.908;6.974;2022-11-11T06:04:23;11.20;;;5.60;;
8230;SDS011;4156;50.908;6.974;2022-11-11T06:06:49;8.10;;;5.07;;
8230;SDS011;4156;50.908;6.974;2022-11-11T06:09:15;7.83;;;4.93;;
8230;SDS011;4156;50.908;6.974;2022-11-11T06:11:41;8.83;;;4.73;;
8230;SDS011;4156;50.908;6.974;2022-11-11T06:14:06;10.47;;;4.90;;
8230;SDS011;4156;50.908;6.974;2022-11-11T06:16:32;8.43;;;5.00;;
8230;SDS011;4156;50.908;6.974;2022-11-11T06:18:58;5.87;;;4.47;;
8230;SDS011;4156;50.908;6.974;2022-11-11T06:21:24;7.63;;;4.20;;
8230;SDS011;4156;50.908;6.974;2022-11-11T06:23:50;6.10;;;4.70;;
8230;SDS011;4156;50.908;6.974;2022-11-11T06:26:15;7.80;;;4.63;;
8230;SDS011;4156;50.908;6.974;2022-11-11T06:28:42;6.67;;;4.63;;
8230;SDS011;4156;50.908;6.974;2022-11-11T06:31:28;10.47;;;5.00;;
8230;SDS011;4156;50.908;6.974;2022-11-11T06:33:53;6.67;;;4.70;;
8230;SDS011;4156;50.908;6.974;2022-11-11T06:36:20;8.17;;;5.03;;
8230;SDS011;4156;50.908;6.974;2022-11-11T06:38:46;6.60;;;4.50;;
8230;SDS011;4156;50.908;6.974;2022-11-11T06:41:12;6.30;;;4.40;;
8230;SDS011;4156;50.908;6.974;2022-11-11T06:43:38;10.77;;;5.17;;
8230;SDS011;4156;50.908;6.974;2022-11-11T06:46:05;8.77;;;4.77;;
8230;SDS011;4156;50.908;6.974;2022-11-11T06:48:31;7.23;;;4.80;;
8230;SDS011;4156;50.908;6.974;2022-11-11T06:51:03;8.03;;;4.77;;
8230;SDS011;4156;50.908;6.974;2022-11-11T06:53:30;10.57;;;4.43;;
8230;SDS011;4156;50.908;6.974;2022-11-11T06:55:56;7.40;;;5.40;;
8230;SDS011;4156;50.908;6.974;2022-11-11T06:58:22;12.07;;;6.33;;
8230;SDS011;4156;50.908;6.974;2022-11-11T07:00:48;8.80;;;5.30;;
8230;SDS011;4156;50.908;6.974;2022-11-11T07:03:15;8.30;;;5.17;;
8230;SDS011;4156;50.908;6.974;2022-11-11T07:05:42;7.27;;;5.17;;
8230;SDS011;4156;50.908;6.974;2022-11-11T07:08:09;7.67;;;4.43;;
8230;SDS011;4156;50.908;6.974;2022-11-11T07:10:37;6.67;;;5.30;;
8230;SDS011;4156;50.908;6.974;2022-11-11T07:13:04;8.00;;;4.70;;
8230;SDS011;4156;50.908;6.974;2022-11-11T07:15:30;6.90;;;4.63;;
8230;SDS011;4156;50.908;6.974;2022-11-11T07:17:56;12.07;;;5.67;;
8230;SDS011;4156;50.908;6.974;2022-11-11T07:20:21;9.77;;;6.27;;
8230;SDS011;4156;50.908;6.974;2022-11-11T07:22:47;10.20;;;5.50;;
8230;SDS011;4156;50.908;6.974;2022-11-11T07:25:13;9.47;;;5.10;;
8230;SDS011;4156;50.908;6.974;2022-11-11T07:27:39;10.53;;;4.80;;
8230;SDS011;4156;50.908;6.974;2022-11-11T07:30:06;9.57;;;5.60;;
8230;SDS011;4156;50.908;6.974;2022-11-11T07:32:32;10.93;;;5.80;;
8230;SDS011;4156;50.908;6.974;2022-11-11T07:34:59;7.83;;;4.90;;
8230;SDS011;4156;50.908;6.974;2022-11-11T07:37:24;9.83;;;5.07;;
8230;SDS011;4156;50.908;6.974;2022-11-11T07:39:50;9.23;;;5.33;;
8230;SDS011;4156;50.908;6.974;2022-11-11T07:42:15;11.57;;;5.17;;
8230;SDS011;4156;50.908;6.974;2022-11-11T07:44:41;12.45;;;6.68;;
8230;SDS011;4156;50.908;6.974;2022-11-11T07:47:07;6.17;;;4.90;;
8230;SDS011;4156;50.908;6.974;2022-11-11T07:49:33;9.70;;;4.67;;
8230;SDS011;4156;50.908;6.974;2022-11-11T07:51:58;9.23;;;5.23;;
8230;SDS011;4156;50.908;6.974;2022-11-11T07:54:24;9.00;;;4.87;;
8230;SDS011;4156;50.908;6.974;2022-11-11T07:56:49;9.00;;;5.47;;
8230;SDS011;4156;50.908;6.974;2022-11-11T07:59:15;8.90;;;5.10;;
8230;SDS011;4156;50.908;6.974;2022-11-11T08:01:41;12.40;;;5.37;;
8230;SDS011;4156;50.908;6.974;2022-11-11T08:04:06;6.63;;;4.87;;
8230;SDS011;4156;50.908;6.974;2022-11-11T08:06:32;10.60;;;5.53;;
8230;SDS011;4156;50.908;6.974;2022-11-11T08:08:57;10.70;;;5.80;;
8230;SDS011;4156;50.908;6.974;2022-11-11T08:11:23;8.70;;;5.53;;
8230;SDS011;4156;50.908;6.974;2022-11-11T08:14:07;20.17;;;5.80;;
8230;SDS011;4156;50.908;6.974;2022-11-11T08:16:33;9.73;;;5.40;;
8230;SDS011;4156;50.908;6.974;2022-11-11T08:18:59;7.60;;;5.60;;
8230;SDS011;4156;50.908;6.974;2022-11-11T08:21:25;10.93;;;5.43;;
8230;SDS011;4156;50.908;6.974;2022-11-11T08:23:51;10.90;;;5.43;;
8230;SDS011;4156;50.908;6.974;2022-11-11T08:26:17;9.80;;;5.33;;
8230;SDS011;4156;50.908;6.974;2022-11-11T08:28:43;8.47;;;4.70;;
8230;SDS011;4156;50.908;6.974;2022-11-11T08:31:09;9.30;;;5.40;;
8230;SDS011;4156;50.908;6.974;2022-11-11T08:33:35;7.50;;;5.00;;
8230;SDS011;4156;50.908;6.974;2022-11-11T08:36:01;13.93;;;5.40;;
8230;SDS011;4156;50.908;6.974;2022-11-11T08:38:27;9.60;;;5.03;;
8230;SDS011;4156;50.908;6.974;2022-11-11T08:40:53;8.60;;;4.53;;
8230;SDS011;4156;50.908;6.974;2022-11-11T08:43:19;7.87;;;4.80;;
8230;SDS011;4156;50.908;6.974;2022-11-11T08:45:46;10.33;;;4.63;;
8230;SDS011;4156;50.908;6.974;2022-11-11T08:48:12;6.57;;;5.00;;
8230;SDS011;4156;50.908;6.974;2022-11-11T08:50:38;9.40;;;4.47;;
8230;SDS011;4156;50.908;6.974;2022-11-11T08:53:05;9.97;;;5.20;;
8230;SDS011;4156;50.908;6.974;2022-11-11T08:55:33;9.10;;;5.63;;
8230;SDS011;4156;50.908;6.974;2022-11-11T08:58:00;14.53;;;5.00;;
8230;SDS011;4156;50.908;6.974;2022-11-11T09:00:27;7.17;;;5.03;;
8230;SDS011;4156;50.908;6.974;2022-11-11T09:02:53;9.70;;;5.20;;
8230;SDS011;4156;50.908;6.974;2022-11-11T09:05:19;14.90;;;5.70;;
8230;SDS011;4156;50.908;6.974;2022-11-11T09:07:44;8.70;;;5.13;;
8230;SDS011;4156;50.908;6.974;2022-11-11T09:10:10;6.70;;;4.60;;
8230;SDS011;4156;50.908;6.974;2022-11-11T09:12:36;8.07;;;4.83;;
8230;SDS011;4156;50.908;6.974;2022-11-11T09:15:01;7.40;;;4.60;;
8230;SDS011;4156;50.908;6.974;2022-11-11T09:17:27;7.47;;;4.70;;
8230;SDS011;4156;50.908;6.974;2022-11-11T09:19:53;9.87;;;6.13;;
8230;SDS011;4156;50.908;6.974;2022-11-11T09:22:18;9.30;;;5.40;;
8230;SDS011;4156;50.908;6.974;2022-11-11T09:24:44;7.17;;;5.07;;
8230;SDS011;4156;50.908;6.974;2022-11-11T09:27:09;7.20;;;4.57;;
8230;SDS011;4156;50.908;6.974;2022-11-11T09:29:35;6.80;;;4.73;;
8230;SDS011;4156;50.908;6.974;2022-11-11T09:32:00;6.20;;;4.20;;
8230;SDS011;4156;50.908;6.974;2022-11-11T09:34:26;7.67;;;4.33;;
8230;SDS011;4156;50.908;6.974;2022-11-11T09:36:51;7.43;;;4.60;;
8230;SDS011;4156;50.908;6.974;2022-11-11T09:39:17;6.67;;;4.57;;
8230;SDS011;4156;50.908;6.974;2022-11-11T09:41:48;6.37;;;4.67;;
8230;SDS011;4156;50.908;6.974;2022-11-11T09:50:00;10.33;;;4.53;;
8230;SDS011;4156;50.908;6.974;2022-11-11T09:52:43;11.63;;;4.90;;
8230;SDS011;4156;50.908;6.974;2022-11-11T09:58:16;5.70;;;4.33;;
8230;SDS011;4156;50.908;6.974;2022-11-11T10:00:47;8.27;;;4.43;;
8230;SDS011;4156;50.908;6.974;2022-11-11T10:03:20;8.57;;;4.63;;
8230;SDS011;4156;50.908;6.974;2022-11-11T10:08:28;7.40;;;4.13;;
8230;SDS011;4156;50.908;6.974;2022-11-11T10:11:04;7.87;;;4.53;;
8230;SDS011;4156;50.908;6.974;2022-11-11T10:13:40;7.20;;;4.27;;
8230;SDS011;4156;50.908;6.974;2022-11-11T10:21:18;9.00;;;5.10;;
8230;SDS011;4156;50.908;6.974;2022-11-11T10:23:50;8.10;;;4.73;;
8230;SDS011;4156;50.908;6.974;2022-11-11T10:26:20;6.90;;;4.53;;
8230;SDS011;4156;50.908;6.974;2022-11-11T10:29:08;7.33;;;4.23;;
8230;SDS011;4156;50.908;6.974;2022-11-11T10:31:43;6.30;;;4.17;;
8230;SDS011;4156;50.908;6.974;2022-11-11T10:34:19;6.73;;;3.87;;
8230;SDS011;4156;50.908;6.974;2022-11-11T10:36:48;6.43;;;3.57;;
8230;SDS011;4156;50.908;6.974;2022-11-11T10:39:20;6.90;;;4.00;;
8230;SDS011;4156;50.908;6.974;2022-11-11T10:41:55;5.80;;;3.80;;
8230;SDS011;4156;50.908;6.974;2022-11-11T10:44:25;5.40;;;3.77;;
8230;SDS011;4156;50.908;6.974;2022-11-11T10:49:35;6.53;;;3.80;;
8230;SDS011;4156;50.908;6.974;2022-11-11T10:52:09;4.67;;;3.17;;
8230;SDS011;4156;50.908;6.974;2022-11-11T10:57:23;6.37;;;3.80;;
8230;SDS011;4156;50.908;6.974;2022-11-11T11:00:02;5.27;;;3.53;;
8230;SDS011;4156;50.908;6.974;2022-11-11T11:02:37;6.63;;;3.60;;
8230;SDS011;4156;50.908;6.974;2022-11-11T11:05:21;6.23;;;3.47;;
8230;SDS011;4156;50.908;6.974;2022-11-11T11:08:08;7.03;;;3.30;;
8230;SDS011;4156;50.908;6.974;2022-11-11T11:10:43;4.83;;;3.33;;
8230;SDS011;4156;50.908;6.974;2022-11-11T11:13:20;4.83;;;3.07;;
8230;SDS011;4156;50.908;6.974;2022-11-11T11:16:23;5.27;;;3.67;;
8230;SDS011;4156;50.908;6.974;2022-11-11T11:21:48;3.57;;;2.90;;
8230;SDS011;4156;50.908;6.974;2022-11-11T11:24:19;8.13;;;3.43;;
8230;SDS011;4156;50.908;6.974;2022-11-11T11:26:48;3.93;;;2.73;;
8230;SDS011;4156;50.908;6.974;2022-11-11T11:29:22;3.40;;;2.23;;
8230;SDS011;4156;50.908;6.974;2022-11-11T11:31:51;6.40;;;3.20;;
8230;SDS011;4156;50.908;6.974;2022-11-11T11:34:17;3.50;;;2.43;;
8230;SDS011;4156;50.908;6.974;2022-11-11T11:36:42;6.13;;;3.23;;
8230;SDS011;4156;50.908;6.974;2022-11-11T11:39:12;5.10;;;2.37;;
8230;SDS011;4156;50.908;6.974;2022-11-11T11:41:40;5.17;;;2.33;;
8230;SDS011;4156;50.908;6.974;2022-11-11T11:44:23;4.30;;;2.70;;
8230;SDS011;4156;50.908;6.974;2022-11-11T11:46:55;3.77;;;2.37;;
8230;SDS011;4156;50.908;6.974;2022-11-11T11:49:38;5.20;;;2.93;;
8230;SDS011;4156;50.908;6.974;2022-11-11T11:55:34;4.00;;;2.60;;
8230;SDS011;4156;50.908;6.974;2022-11-11T12:01:09;4.13;;;2.40;;
8230;SDS011;4156;50.908;6.974;2022-11-11T12:06:38;5.70;;;2.43;;
8230;SDS011;4156;50.908;6.974;2022-11-11T12:11:56;3.60;;;2.27;;
8230;SDS011;4156;50.908;6.974;2022-11-11T12:20:19;4.20;;;2.30;;
8230;SDS011;4156;50.908;6.974;2022-11-11T12:22:51;3.40;;;2.20;;
8230;SDS011;4156;50.908;6.974;2022-11-11T12:25:39;3.67;;;2.40;;
8230;SDS011;4156;50.908;6.974;2022-11-11T12:31:01;3.97;;;2.20;;
8230;SDS011;4156;50.908;6.974;2022-11-11T12:36:15;4.50;;;2.20;;
8230;SDS011;4156;50.908;6.974;2022-11-11T12:39:08;3.43;;;2.23;;
8230;SDS011;4156;50.908;6.974;2022-11-11T12:44:36;5.17;;;2.10;;
8230;SDS011;4156;50.908;6.974;2022-11-11T12:47:21;1.97;;;1.70;;
8230;SDS011;4156;50.908;6.974;2022-11-11T12:49:57;3.30;;;2.00;;
8230;SDS011;4156;50.908;6.974;2022-11-11T12:55:14;5.20;;;1.87;;
8230;SDS011;4156;50.908;6.974;2022-11-11T12:57:58;3.93;;;1.70;;
8230;SDS011;4156;50.908;6.974;2022-11-11T13:00:39;2.57;;;1.53;;
8230;SDS011;4156;50.908;6.974;2022-11-11T13:03:26;3.63;;;1.70;;
8230;SDS011;4156;50.908;6.974;2022-11-11T13:08:43;3.00;;;1.67;;
8230;SDS011;4156;50.908;6.974;2022-11-11T13:11:56;4.07;;;1.63;;
8230;SDS011;4156;50.908;6.974;2022-11-11T13:17:10;2.00;;;1.43;;
8230;SDS011;4156;50.908;6.974;2022-11-11T13:19:39;3.57;;;1.60;;
8230;SDS011;4156;50.908;6.974;2022-11-11T13:22:24;3.33;;;1.63;;
8230;SDS011;4156;50.908;6.974;2022-11-11T13:24:54;2.33;;;1.87;;
8230;SDS011;4156;50.908;6.974;2022-11-11T13:27:42;3.67;;;1.80;;
8230;SDS011;4156;50.908;6.974;2022-11-11T13:32:47;2.40;;;1.70;;
8230;SDS011;4156;50.908;6.974;2022-11-11T13:35:28;3.93;;;1.70;;
8230;SDS011;4156;50.908;6.974;2022-11-11T13:37:57;4.47;;;2.10;;
8230;SDS011;4156;50.908;6.974;2022-11-11T13:43:44;3.00;;;1.60;;
8230;SDS011;4156;50.908;6.974;2022-11-11T13:46:07;3.37;;;1.70;;
8230;SDS011;4156;50.908;6.974;2022-11-11T13:48:55;3.70;;;1.50;;
8230;SDS011;4156;50.908;6.974;2022-11-11T13:51:26;3.67;;;1.60;;
8230;SDS011;4156;50.908;6.974;2022-11-11T13:53:58;1.83;;;1.40;;
8230;SDS011;4156;50.908;6.974;2022-11-11T13:58:57;2.17;;;1.40;;
8230;SDS011;4156;50.908;6.974;2022-11-11T14:01:23;2.40;;;1.37;;
8230;SDS011;4156;50.908;6.974;2022-11-11T14:11:25;3.77;;;2.03;;
8230;SDS011;4156;50.908;6.974;2022-11-11T14:13:56;2.73;;;1.60;;
8230;SDS011;4156;50.908;6.974;2022-11-11T14:21:47;2.20;;;1.90;;
8230;SDS011;4156;50.908;6.974;2022-11-11T14:24:38;1.93;;;1.60;;
8230;SDS011;4156;50.908;6.974;2022-11-11T14:29:40;3.10;;;1.83;;
8230;SDS011;4156;50.908;6.974;2022-11-11T14:35:12;1.90;;;1.50;;
8230;SDS011;4156;50.908;6.974;2022-11-11T14:40:29;2.10;;;1.60;;
8230;SDS011;4156;50.908;6.974;2022-11-11T14:42:57;3.67;;;1.80;;
8230;SDS011;4156;50.908;6.974;2022-11-11T14:47:54;5.33;;;2.03;;
8230;SDS011;4156;50.908;6.974;2022-11-11T14:52:55;3.33;;;1.80;;
8230;SDS011;4156;50.908;6.974;2022-11-11T14:55:27;3.90;;;1.80;;
8230;SDS011;4156;50.908;6.974;2022-11-11T15:00:33;4.40;;;1.90;;
8230;SDS011;4156;50.908;6.974;2022-11-11T15:03:28;4.47;;;1.80;;
8230;SDS011;4156;50.908;6.974;2022-11-11T15:06:02;3.30;;;1.80;;
8230;SDS011;4156;50.908;6.974;2022-11-11T15:08:32;3.27;;;2.03;;
8230;SDS011;4156;50.908;6.974;2022-11-11T15:11:27;7.83;;;1.90;;
8230;SDS011;4156;50.908;6.974;2022-11-11T15:14:12;2.33;;;1.77;;
8230;SDS011;4156;50.908;6.974;2022-11-11T15:24:57;2.60;;;1.90;;
8230;SDS011;4156;50.908;6.974;2022-11-11T15:33:52;2.90;;;1.83;;
8230;SDS011;4156;50.908;6.974;2022-11-11T15:36:30;4.10;;;1.90;;
8230;SDS011;4156;50.908;6.974;2022-11-11T15:39:19;3.20;;;1.80;;
8230;SDS011;4156;50.908;6.974;2022-11-11T15:41:49;3.33;;;2.13;;
8230;SDS011;4156;50.908;6.974;2022-11-11T15:44:17;2.07;;;1.70;;
8230;SDS011;4156;50.908;6.974;2022-11-11T15:46:46;4.47;;;2.33;;
8230;SDS011;4156;50.908;6.974;2022-11-11T15:49:58;3.30;;;1.97;;
8230;SDS011;4156;50.908;6.974;2022-11-11T15:54:47;2.90;;;1.80;;
8230;SDS011;4156;50.908;6.974;2022-11-11T15:57:14;3.50;;;2.00;;
8230;SDS011;4156;50.908;6.974;2022-11-11T15:59:54;3.47;;;2.37;;
8230;SDS011;4156;50.908;6.974;2022-11-11T16:02:25;4.93;;;2.17;;
8230;SDS011;4156;50.908;6.974;2022-11-11T16:05:15;3.43;;;2.07;;
8230;SDS011;4156;50.908;6.974;2022-11-11T16:07:53;2.43;;;1.73;;
8230;SDS011;4156;50.908;6.974;2022-11-11T16:13:13;3.13;;;1.90;;
8230;SDS011;4156;50.908;6.974;2022-11-11T16:15:53;4.40;;;1.80;;
8230;SDS011;4156;50.908;6.974;2022-11-11T16:18:24;4.00;;;2.30;;
8230;SDS011;4156;50.908;6.974;2022-11-11T16:21:04;3.63;;;1.70;;
8230;SDS011;4156;50.908;6.974;2022-11-11T16:23:32;2.97;;;1.90;;
8230;SDS011;4156;50.908;6.974;2022-11-11T16:25:59;2.53;;;1.90;;
8230;SDS011;4156;50.908;6.974;2022-11-11T16:28:26;5.50;;;2.13;;
8230;SDS011;4156;50.908;6.974;2022-11-11T16:30:55;3.83;;;1.80;;
8230;SDS011;4156;50.908;6.974;2022-11-11T16:35:49;3.60;;;2.10;;
8230;SDS011;4156;50.908;6.974;2022-11-11T16:38:31;4.00;;;2.10;;
8230;SDS011;4156;50.908;6.974;2022-11-11T16:40:57;4.07;;;2.20;;
8230;SDS011;4156;50.908;6.974;2022-11-11T16:43:27;2.73;;;1.97;;
8230;SDS011;4156;50.908;6.974;2022-11-11T16:46:05;3.10;;;2.03;;
8230;SDS011;4156;50.908;6.974;2022-11-11T16:48:45;4.37;;;2.20;;
8230;SDS011;4156;50.908;6.974;2022-11-11T16:54:13;7.93;;;2.23;;
8230;SDS011;4156;50.908;6.974;2022-11-11T16:56:43;3.33;;;2.10;;
8230;SDS011;4156;50.908;6.974;2022-11-11T16:59:31;10.03;;;2.30;;
8230;SDS011;4156;50.908;6.974;2022-11-11T17:02:01;3.87;;;2.40;;
8230;SDS011;4156;50.908;6.974;2022-11-11T17:12:40;4.47;;;2.57;;
8230;SDS011;4156;50.908;6.974;2022-11-11T17:15:07;4.50;;;2.50;;
8230;SDS011;4156;50.908;6.974;2022-11-11T17:17:35;5.03;;;2.67;;
8230;SDS011;4156;50.908;6.974;2022-11-11T17:20:06;5.23;;;3.20;;
8230;SDS011;4156;50.908;6.974;2022-11-11T17:22:34;4.60;;;2.80;;
8230;SDS011;4156;50.908;6.974;2022-11-11T17:25:00;5.20;;;2.73;;
8230;SDS011;4156;50.908;6.974;2022-11-11T17:27:29;5.50;;;2.90;;
8230;SDS011;4156;50.908;6.974;2022-11-11T17:29:55;3.40;;;2.53;;
8230;SDS011;4156;50.908;6.974;2022-11-11T17:32:21;4.77;;;2.53;;
8230;SDS011;4156;50.908;6.974;2022-11-11T17:34:46;3.93;;;2.20;;
8230;SDS011;4156;50.908;6.974;2022-11-11T17:37:12;4.77;;;2.67;;
8230;SDS011;4156;50.908;6.974;2022-11-11T17:39:38;4.57;;;2.23;;
8230;SDS011;4156;50.908;6.974;2022-11-11T17:42:07;3.40;;;2.47;;
8230;SDS011;4156;50.908;6.974;2022-11-11T17:44:32;5.97;;;2.40;;
8230;SDS011;4156;50.908;6.974;2022-11-11T17:46:58;5.70;;;2.57;;
8230;SDS011;4156;50.908;6.974;2022-11-11T17:49:23;3.00;;;2.23;;
8230;SDS011;4156;50.908;6.974;2022-11-11T17:51:49;4.63;;;2.40;;
8230;SDS011;4156;50.908;6.974;2022-11-11T17:54:15;3.77;;;2.20;;
8230;SDS011;4156;50.908;6.974;2022-11-11T17:56:40;5.10;;;2.50;;